Terminal Aerodrome Forecast
Issued by NWS Nashville, TN

Home | Current Version | Previous Version | Text Only | Print | Product List | Glossary On
Versions: 1 2 3 4 5 6 7 8 9 10 11 12 13 14 15
000
FTUS44 KOHX 221700
TAFBNA
TAF
KBNA 221728Z 2218/2318 18012G20KT P6SM SCT080
     FM230000 16009KT P6SM BKN050
     FM231000 15008KT P6SM BKN025
     FM231500 14014G22KT 4SM -SHRA OVC007=

USA.gov is the U.S. government's official web portal to all federal, state and local government web resources and services.